Terminal Aerodrome Forecast
Issued by NWS Duluth, MN

Home | Current Version | Previous Version | Text Only | Print | Product List | Glossary On
Versions: 1 2 3 4 5 6 7 8 9 10 11 12 13 14 15 16 17 18 19 20 21 22 23 24
000
FTUS43 KDLH 221900 AAA
TAFINL
TAF AMD
KINL 221932Z 2220/2318 11007KT P6SM OVC006
      TEMPO 2220/2223 4SM -DZSN BR OVC004
     FM230100 08007KT 1SM -DZ BR OVC004
      TEMPO 2305/2309 1/2SM -DZ FG OVC003
     FM230900 10005KT 1/2SM FG OVC002
     FM231100 05007KT 3SM -SN BR BKN005 OVC012
     FM231600 01009G14KT 3SM -SN BR OVC014=

USA.gov is the U.S. government's official web portal to all federal, state and local government web resources and services.